Halfway's Hourly Summary for Thursday, May 10, 2018
Hour Temp
(f)
RH
(%)
Solar Rad.
(MJ/m2)
Rainfall
(in)
Wind
(mph)
5/10/2018 12:00 AM 74 29 0 0 10.88
5/10/2018 1:00 AM 74 30 0 0 14.8
5/10/2018 2:00 AM 73 33 0 0 16.1
5/10/2018 3:00 AM 71 39 0 0 14.2
5/10/2018 4:00 AM 69 45 0 0 12.9
5/10/2018 5:00 AM 66 50 0 0 10.79
5/10/2018 6:00 AM 64 53 0 0 9.89
5/10/2018 7:00 AM 63 57 0 0 8.97
5/10/2018 8:00 AM 63 57 0.22 0 5.65
5/10/2018 9:00 AM 65 53 0.67 0 2.88
5/10/2018 10:00 AM 68 47 1.33 0 8.72
5/10/2018 11:00 AM 72 40 2.08 0 10.47
5/10/2018 12:00 PM 78 32 3.18 0 11.2
5/10/2018 1:00 PM 84 23 3.58 0 12.2
5/10/2018 2:00 PM 89 20 3.96 0 14.19
5/10/2018 3:00 PM 93 14 3.57 0 16.82
5/10/2018 4:00 PM 96 11 3.28 0 17.52
5/10/2018 5:00 PM 98 8 2.89 0 16.81
5/10/2018 6:00 PM 98 4 1.89 0 17.32
5/10/2018 7:00 PM 98 3 1.52 0 17.14
5/10/2018 8:00 PM 96 4 0.69 0 14.91
5/10/2018 9:00 PM 90 6 0.1 0 19.21
5/10/2018 10:00 PM 85 20 0 0 21.36
5/10/2018 11:00 PM 81 24 0 0 21.59
Data Summary 79 29 28.96 0.00 13.61